createdAt,value
2018-03-07T00:01:08.339Z,12.97
2018-03-07T00:03:36.616Z,12.70
2018-03-07T00:06:05.076Z,12.07
2018-03-07T00:08:33.184Z,11.03
2018-03-07T00:11:00.688Z,12.27
2018-03-07T00:13:28.980Z,12.07
2018-03-07T00:15:56.350Z,10.23
2018-03-07T00:18:24.543Z,9.73
2018-03-07T00:20:51.959Z,10.63
2018-03-07T00:23:20.228Z,11.00
2018-03-07T00:25:48.532Z,10.37
2018-03-07T00:28:15.868Z,10.97
2018-03-07T00:30:44.185Z,10.40
2018-03-07T00:33:12.264Z,8.23
2018-03-07T00:35:39.656Z,9.30
2018-03-07T00:38:07.009Z,9.77
2018-03-07T00:40:35.290Z,7.43
2018-03-07T00:43:03.551Z,8.43
2018-03-07T00:45:30.939Z,7.77
2018-03-07T00:47:59.223Z,7.20
2018-03-07T00:50:27.347Z,6.60
2018-03-07T00:52:54.764Z,6.63
2018-03-07T00:55:22.087Z,7.30
2018-03-07T00:57:50.716Z,7.00
2018-03-07T01:00:19.184Z,7.07
2018-03-07T01:02:47.485Z,8.30
2018-03-07T01:05:15.543Z,6.97
2018-03-07T01:07:42.912Z,8.13
2018-03-07T01:10:10.980Z,6.33
2018-03-07T01:12:39.290Z,6.60
2018-03-07T01:15:06.647Z,6.90
2018-03-07T01:17:33.992Z,5.73
2018-03-07T01:20:01.445Z,6.53
2018-03-07T01:22:29.693Z,5.43
2018-03-07T01:24:57.063Z,6.60
2018-03-07T01:27:24.528Z,7.07
2018-03-07T01:29:51.939Z,5.70
2018-03-07T01:32:20.308Z,6.57
2018-03-07T01:34:48.607Z,6.23
2018-03-07T01:37:15.936Z,6.83
2018-03-07T01:39:44.263Z,5.80
2018-03-07T01:42:11.639Z,5.73
2018-03-07T01:44:39.916Z,5.37
2018-03-07T01:47:07.307Z,5.17
2018-03-07T01:49:35.389Z,6.07
2018-03-07T01:52:02.771Z,6.83
2018-03-07T01:54:30.113Z,4.90
2018-03-07T01:56:58.220Z,5.60
2018-03-07T01:59:26.555Z,4.80
2018-03-07T02:01:54.784Z,5.23
2018-03-07T02:04:22.252Z,5.23
2018-03-07T02:06:50.606Z,5.37
2018-03-07T02:09:18.879Z,5.23
2018-03-07T02:11:46.223Z,5.67
2018-03-07T02:14:13.573Z,5.27
2018-03-07T02:16:41.843Z,5.33
2018-03-07T02:19:09.237Z,4.83
2018-03-07T02:21:37.323Z,6.20
2018-03-07T02:24:05.587Z,5.23
2018-03-07T02:26:32.929Z,6.50
2018-03-07T02:29:01.204Z,5.60
2018-03-07T02:31:28.618Z,5.63
2018-03-07T02:33:56.719Z,5.67
2018-03-07T02:36:31.112Z,5.17
2018-03-07T02:38:58.552Z,5.07
2018-03-07T02:41:25.896Z,5.03
2018-03-07T02:43:54.091Z,7.00
2018-03-07T02:46:22.289Z,7.00
2018-03-07T02:48:49.622Z,5.10
2018-03-07T02:51:17.865Z,5.67
2018-03-07T02:53:45.329Z,5.73
2018-03-07T02:56:12.653Z,6.00
2018-03-07T02:58:39.981Z,5.30
2018-03-07T03:01:08.259Z,6.60
2018-03-07T03:03:35.561Z,5.77
2018-03-07T03:06:02.943Z,5.87
2018-03-07T03:08:31.053Z,5.60
2018-03-07T03:10:58.481Z,6.47
2018-03-07T03:13:26.595Z,5.67
2018-03-07T03:15:54.020Z,5.20
2018-03-07T03:18:22.092Z,5.37
2018-03-07T03:20:49.452Z,5.60
2018-03-07T03:23:17.835Z,5.63
2018-03-07T03:25:45.937Z,5.27
2018-03-07T03:28:14.371Z,5.60
2018-03-07T03:30:42.462Z,5.60
2018-03-07T03:33:09.903Z,6.20
2018-03-07T03:35:37.245Z,5.70
2018-03-07T03:38:05.552Z,5.40
2018-03-07T03:40:32.949Z,5.07
2018-03-07T03:43:00.380Z,5.30
2018-03-07T03:45:28.560Z,5.97
2018-03-07T03:47:56.685Z,5.53
2018-03-07T03:50:25.001Z,6.43
2018-03-07T03:52:53.084Z,5.33
2018-03-07T03:55:21.224Z,5.13
2018-03-07T03:57:48.558Z,4.67
2018-03-07T04:00:16.644Z,5.00
2018-03-07T04:02:44.128Z,5.60
2018-03-07T04:05:12.471Z,4.43
2018-03-07T04:07:39.832Z,5.13
2018-03-07T04:10:07.928Z,4.50
2018-03-07T04:12:36.468Z,4.00
2018-03-07T04:15:04.914Z,5.57
2018-03-07T04:17:32.336Z,4.83
2018-03-07T04:19:59.713Z,6.03
2018-03-07T04:22:27.852Z,4.07
2018-03-07T04:24:55.234Z,5.00
2018-03-07T04:27:23.330Z,4.57
2018-03-07T04:29:50.757Z,4.20
2018-03-07T04:32:18.844Z,4.13
2018-03-07T04:34:47.127Z,4.93
2018-03-07T04:37:15.411Z,4.33
2018-03-07T04:39:43.520Z,4.33
2018-03-07T04:42:10.903Z,3.97
2018-03-07T04:44:39.007Z,6.10
2018-03-07T04:47:06.556Z,4.30
2018-03-07T04:49:34.879Z,4.53
2018-03-07T04:52:02.395Z,4.67
2018-03-07T04:54:29.717Z,4.30
2018-03-07T04:56:57.861Z,3.50
2018-03-07T04:59:26.347Z,3.70
2018-03-07T05:01:54.631Z,3.87
2018-03-07T05:04:21.988Z,4.17
2018-03-07T05:06:50.276Z,3.90
2018-03-07T05:09:18.353Z,4.17
2018-03-07T05:11:46.663Z,3.90
2018-03-07T05:14:14.761Z,4.40
2018-03-07T05:16:42.147Z,4.30
2018-03-07T05:19:10.420Z,4.27
2018-03-07T05:21:37.777Z,4.00
2018-03-07T05:24:05.881Z,4.07
2018-03-07T05:26:33.984Z,4.30
2018-03-07T05:29:02.300Z,4.13
2018-03-07T05:31:30.418Z,5.87
2018-03-07T05:33:58.505Z,4.60
2018-03-07T05:36:25.905Z,4.17
2018-03-07T05:38:54.087Z,4.40
2018-03-07T05:41:21.468Z,4.07
2018-03-07T05:43:49.653Z,4.67
2018-03-07T05:46:17.047Z,4.50
2018-03-07T05:48:44.421Z,5.77
2018-03-07T05:51:12.972Z,4.93
2018-03-07T05:53:40.638Z,5.20
2018-03-07T05:56:08.040Z,5.30
2018-03-07T05:58:35.435Z,5.27
2018-03-07T06:01:02.776Z,5.17
2018-03-07T06:03:30.163Z,6.07
2018-03-07T06:05:57.600Z,8.30
2018-03-07T06:08:24.953Z,7.33
2018-03-07T06:10:52.296Z,6.13
2018-03-07T06:13:19.648Z,5.70
2018-03-07T06:15:46.994Z,6.33
2018-03-07T06:18:15.124Z,7.60
2018-03-07T06:20:43.376Z,6.63
2018-03-07T06:23:10.788Z,7.33
2018-03-07T06:25:38.892Z,6.33
2018-03-07T06:28:06.298Z,6.50
2018-03-07T06:30:34.549Z,7.07
2018-03-07T06:33:02.704Z,5.90
2018-03-07T06:35:30.980Z,8.00
2018-03-07T06:37:58.480Z,6.97
2018-03-07T06:40:25.880Z,7.37
2018-03-07T06:42:53.987Z,6.10
2018-03-07T06:45:22.274Z,6.33
2018-03-07T06:47:50.346Z,5.33
2018-03-07T06:50:18.652Z,5.47
2018-03-07T06:52:46.041Z,6.00
2018-03-07T06:55:13.411Z,6.80
2018-03-07T06:57:41.691Z,5.33
2018-03-07T07:00:09.867Z,5.83
2018-03-07T07:02:37.259Z,6.60
2018-03-07T07:05:05.344Z,6.70
2018-03-07T07:07:33.647Z,5.50
2018-03-07T07:10:01.928Z,7.40
2018-03-07T07:12:29.268Z,6.30
2018-03-07T07:14:56.650Z,5.60
2018-03-07T07:17:24.060Z,5.13
2018-03-07T07:19:51.390Z,5.20
2018-03-07T07:22:19.524Z,6.60
2018-03-07T07:24:46.875Z,4.97
2018-03-07T07:27:15.159Z,5.57
2018-03-07T07:29:42.674Z,5.40
2018-03-07T07:32:10.777Z,4.50
2018-03-07T07:34:38.253Z,4.83
2018-03-07T07:37:06.461Z,5.00
2018-03-07T07:39:33.852Z,5.57
2018-03-07T07:42:01.225Z,4.47
2018-03-07T07:44:29.533Z,5.23
2018-03-07T07:46:57.767Z,4.80
2018-03-07T07:49:25.138Z,5.10
2018-03-07T07:51:53.447Z,6.50
2018-03-07T07:54:21.520Z,5.17
2018-03-07T07:56:48.872Z,3.60
2018-03-07T07:59:16.299Z,3.83
2018-03-07T08:01:43.680Z,4.00
2018-03-07T08:04:12.064Z,6.60
2018-03-07T08:06:40.212Z,3.97
2018-03-07T08:09:08.630Z,3.53
2018-03-07T08:11:35.947Z,2.97
2018-03-07T08:14:04.564Z,2.70
2018-03-07T08:16:32.831Z,2.50
2018-03-07T08:19:00.232Z,3.57
2018-03-07T08:21:29.219Z,4.90
2018-03-07T08:23:56.605Z,2.47
2018-03-07T08:26:24.877Z,2.07
2018-03-07T08:28:53.133Z,3.77
2018-03-07T08:31:21.443Z,1.87
2018-03-07T08:33:48.796Z,1.90
2018-03-07T08:36:17.101Z,1.63
2018-03-07T08:38:45.198Z,1.80
2018-03-07T08:41:12.819Z,9.87
2018-03-07T08:43:41.109Z,6.37
2018-03-07T08:46:08.505Z,2.10
2018-03-07T08:48:35.856Z,3.13
2018-03-07T08:51:04.175Z,2.50
2018-03-07T08:53:31.512Z,1.90
2018-03-07T08:55:59.629Z,2.23
2018-03-07T08:58:26.932Z,2.90
2018-03-07T09:00:54.299Z,1.97
2018-03-07T09:03:22.400Z,2.33
2018-03-07T09:05:49.822Z,2.10
2018-03-07T09:08:17.927Z,3.50
2018-03-07T09:10:45.310Z,1.73
2018-03-07T09:13:12.680Z,1.40
2018-03-07T09:15:40.985Z,1.00
2018-03-07T09:18:09.065Z,1.40
2018-03-07T09:20:36.442Z,1.00
2018-03-07T09:23:04.577Z,1.50
2018-03-07T09:25:32.666Z,0.73
2018-03-07T09:28:00.113Z,1.33
2018-03-07T09:30:28.432Z,0.70
2018-03-07T09:32:56.527Z,2.33
2018-03-07T09:35:24.690Z,1.20
2018-03-07T09:37:52.249Z,2.20
2018-03-07T09:40:20.535Z,1.33
2018-03-07T09:42:48.913Z,0.63
2018-03-07T09:45:16.474Z,0.90
2018-03-07T09:47:43.848Z,1.70
2018-03-07T09:50:11.243Z,0.80
2018-03-07T09:52:38.673Z,0.77
2018-03-07T09:55:06.965Z,0.80
2018-03-07T09:57:35.050Z,1.70
2018-03-07T10:00:02.440Z,2.13
2018-03-07T10:02:29.834Z,1.10
2018-03-07T10:04:58.138Z,0.87
2018-03-07T10:07:26.241Z,0.80
2018-03-07T10:09:54.550Z,0.83
2018-03-07T10:12:22.836Z,1.13
2018-03-07T10:14:50.908Z,1.43
2018-03-07T10:17:19.205Z,2.30
2018-03-07T10:19:47.348Z,1.03
2018-03-07T10:22:15.583Z,1.03
2018-03-07T10:24:43.879Z,1.40
2018-03-07T10:27:11.269Z,1.10
2018-03-07T10:29:38.615Z,0.83
2018-03-07T10:32:06.909Z,1.73
2018-03-07T10:34:35.020Z,1.30
2018-03-07T10:37:02.415Z,1.50
2018-03-07T10:39:30.536Z,0.97
2018-03-07T10:41:58.675Z,0.60
2018-03-07T10:44:26.961Z,1.30
2018-03-07T10:46:54.344Z,0.80
2018-03-07T10:49:21.815Z,0.80
2018-03-07T10:51:49.178Z,0.80
2018-03-07T10:54:17.425Z,0.80
2018-03-07T10:56:44.961Z,0.70
2018-03-07T10:59:13.073Z,1.00
2018-03-07T11:01:40.496Z,5.47
2018-03-07T11:04:08.078Z,2.00
2018-03-07T11:06:35.464Z,2.17
2018-03-07T11:09:03.744Z,1.23
2018-03-07T11:11:31.850Z,5.53
2018-03-07T11:13:59.179Z,0.67
2018-03-07T11:16:27.264Z,0.50
2018-03-07T11:18:54.636Z,2.20
2018-03-07T11:21:22.758Z,1.27
2018-03-07T11:23:50.132Z,0.70
2018-03-07T11:26:17.482Z,0.60
2018-03-07T11:28:45.609Z,1.97
2018-03-07T11:31:12.948Z,0.93
2018-03-07T11:33:41.083Z,0.77
2018-03-07T11:36:09.383Z,1.20
2018-03-07T11:38:37.589Z,0.77
2018-03-07T11:41:04.960Z,0.93
2018-03-07T11:43:32.563Z,0.70
2018-03-07T11:45:59.930Z,1.97
2018-03-07T11:48:28.153Z,2.00
2018-03-07T11:50:55.520Z,6.60
2018-03-07T11:53:23.685Z,4.33
2018-03-07T11:55:51.243Z,0.63
2018-03-07T11:58:18.624Z,1.13
2018-03-07T12:00:46.787Z,2.93
2018-03-07T12:03:15.071Z,0.67
2018-03-07T12:05:43.308Z,0.93
2018-03-07T12:08:10.673Z,3.37
2018-03-07T12:10:38.960Z,1.70
2018-03-07T12:13:07.096Z,4.43
2018-03-07T12:15:35.376Z,3.53
2018-03-07T12:18:02.736Z,1.60
2018-03-07T12:20:30.099Z,2.00
2018-03-07T12:22:57.505Z,2.37
2018-03-07T12:25:24.872Z,9.57
2018-03-07T12:27:53.152Z,0.70
2018-03-07T12:30:20.667Z,18.03
2018-03-07T12:32:48.941Z,1.50
2018-03-07T12:35:17.268Z,0.63
2018-03-07T12:37:44.600Z,0.77
2018-03-07T12:40:11.975Z,0.70
2018-03-07T12:42:39.307Z,0.83
2018-03-07T12:45:07.551Z,0.93
2018-03-07T12:47:34.936Z,1.80
2018-03-07T12:50:02.281Z,0.70
2018-03-07T12:52:29.670Z,0.77
2018-03-07T12:54:57.018Z,0.83
2018-03-07T12:57:24.436Z,0.80
2018-03-07T12:59:52.902Z,2.73
2018-03-07T13:02:21.057Z,1.40
2018-03-07T13:04:48.481Z,1.00
2018-03-07T13:07:16.616Z,3.30
2018-03-07T13:09:43.992Z,3.20
2018-03-07T13:12:11.330Z,4.73
2018-03-07T13:14:39.468Z,0.60
2018-03-07T13:17:06.860Z,4.83
2018-03-07T13:19:35.188Z,1.40
2018-03-07T13:22:02.528Z,0.93
2018-03-07T13:24:30.155Z,2.83
2018-03-07T13:26:58.507Z,0.80
2018-03-07T13:29:25.899Z,1.10
2018-03-07T13:31:54.203Z,6.37
2018-03-07T13:34:21.577Z,0.80
2018-03-07T13:36:48.979Z,1.23
2018-03-07T13:39:16.344Z,2.43
2018-03-07T13:41:43.859Z,2.33
2018-03-07T13:44:12.354Z,1.63
2018-03-07T13:46:40.513Z,2.67
2018-03-07T13:49:08.680Z,2.63
2018-03-07T13:51:36.975Z,1.13
2018-03-07T13:54:04.504Z,3.53
2018-03-07T13:56:32.059Z,1.47
2018-03-07T13:59:00.423Z,0.93
2018-03-07T14:01:27.815Z,0.90
2018-03-07T14:03:56.160Z,2.00
2018-03-07T14:06:24.492Z,3.20
2018-03-07T14:08:52.792Z,1.93
2018-03-07T14:13:56.277Z,1.43
2018-03-07T14:16:24.420Z,2.03
2018-03-07T14:18:53.121Z,0.80
2018-03-07T14:21:20.572Z,1.50
2018-03-07T14:23:48.024Z,2.20
2018-03-07T14:26:15.438Z,0.70
2018-03-07T14:28:43.507Z,0.73
2018-03-07T14:31:11.699Z,1.53
2018-03-07T14:33:40.017Z,1.37
2018-03-07T14:36:08.336Z,1.60
2018-03-07T14:38:35.708Z,1.40
2018-03-07T14:41:03.188Z,1.57
2018-03-07T14:43:31.365Z,2.50
2018-03-07T14:45:59.477Z,1.50
2018-03-07T14:48:26.878Z,1.20
2018-03-07T14:50:55.179Z,2.70
2018-03-07T14:53:22.704Z,2.60
2018-03-07T14:55:50.813Z,1.47
2018-03-07T14:58:19.044Z,1.10
2018-03-07T15:00:47.380Z,1.20
2018-03-07T15:03:15.680Z,2.43
2018-03-07T15:05:43.138Z,3.27
2018-03-07T15:08:10.517Z,2.30
2018-03-07T15:10:38.990Z,1.33
2018-03-07T15:13:06.325Z,1.30
2018-03-07T15:15:33.723Z,1.63
2018-03-07T15:18:02.060Z,1.63
2018-03-07T15:20:30.189Z,0.93
2018-03-07T15:22:58.506Z,1.70
2018-03-07T15:25:25.865Z,2.33
2018-03-07T15:27:53.261Z,1.33
2018-03-07T15:30:21.376Z,0.83
2018-03-07T15:32:49.537Z,0.87
2018-03-07T15:35:16.932Z,1.67
2018-03-07T15:37:45.234Z,3.53
2018-03-07T15:40:13.383Z,3.03
2018-03-07T15:42:41.497Z,2.10
2018-03-07T15:45:09.844Z,1.30
2018-03-07T15:47:37.224Z,1.83
2018-03-07T15:50:05.536Z,1.03
2018-03-07T15:52:33.657Z,2.50
2018-03-07T15:55:01.981Z,3.50
2018-03-07T15:57:29.390Z,2.90
2018-03-07T15:59:56.771Z,1.70
2018-03-07T16:02:24.232Z,1.37
2018-03-07T16:04:51.608Z,1.17
2018-03-07T16:07:19.098Z,1.30
2018-03-07T16:09:47.428Z,2.40
2018-03-07T16:12:14.797Z,1.87
2018-03-07T16:14:42.467Z,0.80
2018-03-07T16:17:16.871Z,0.80
2018-03-07T16:19:45.032Z,2.03
2018-03-07T16:22:13.263Z,1.53
2018-03-07T16:24:41.388Z,0.80
2018-03-07T16:27:09.981Z,2.00
2018-03-07T16:29:38.135Z,2.30
2018-03-07T16:32:05.538Z,1.27
2018-03-07T16:34:33.690Z,2.37
2018-03-07T16:37:01.101Z,1.70
2018-03-07T16:39:29.219Z,1.67
2018-03-07T16:41:56.642Z,1.10
2018-03-07T16:44:23.998Z,1.20
2018-03-07T16:46:52.128Z,1.47
2018-03-07T16:49:19.495Z,1.33
2018-03-07T16:51:48.037Z,1.67
2018-03-07T16:54:15.399Z,0.83
2018-03-07T16:56:42.849Z,2.47
2018-03-07T16:59:11.218Z,1.27
2018-03-07T17:01:38.676Z,1.27
2018-03-07T17:04:06.769Z,19.47
2018-03-07T17:06:34.127Z,1.07
2018-03-07T17:09:10.328Z,2.40
2018-03-07T17:11:58.331Z,1.07
2018-03-07T17:14:30.208Z,1.40
2018-03-07T17:17:09.115Z,1.23
2018-03-07T17:19:48.840Z,0.90
2018-03-07T17:22:18.904Z,2.40
2018-03-07T17:24:52.766Z,1.30
2018-03-07T17:27:20.229Z,1.10
2018-03-07T17:29:48.640Z,0.70
2018-03-07T17:32:18.868Z,1.40
2018-03-07T17:34:47.258Z,2.10
2018-03-07T17:37:15.600Z,1.50
2018-03-07T17:39:46.504Z,1.40
2018-03-07T17:42:16.656Z,0.87
2018-03-07T17:44:44.069Z,4.10
2018-03-07T17:47:12.232Z,3.73
2018-03-07T17:49:41.358Z,2.77
2018-03-07T17:52:12.067Z,4.40
2018-03-07T17:54:46.826Z,2.90
2018-03-07T17:57:20.560Z,2.40
2018-03-07T17:59:50.615Z,2.63
2018-03-07T18:02:18.935Z,2.80
2018-03-07T18:04:51.408Z,2.10
2018-03-07T18:07:20.535Z,1.77
2018-03-07T18:09:48.974Z,2.10
2018-03-07T18:12:19.709Z,1.40
2018-03-07T18:14:52.859Z,1.33
2018-03-07T18:17:27.917Z,2.23
2018-03-07T18:19:59.980Z,2.20
2018-03-07T18:22:32.325Z,1.97
2018-03-07T18:25:00.546Z,2.07
2018-03-07T18:27:34.258Z,1.40
2018-03-07T18:30:04.581Z,0.80
2018-03-07T18:32:33.754Z,1.80
2018-03-07T18:35:03.060Z,0.60
2018-03-07T18:37:32.497Z,0.80
2018-03-07T18:40:00.973Z,1.00
2018-03-07T18:42:28.407Z,0.57
2018-03-07T18:45:00.624Z,0.90
2018-03-07T18:47:39.607Z,0.80
2018-03-07T18:50:14.780Z,0.97
2018-03-07T18:52:44.897Z,0.77
2018-03-07T18:55:15.944Z,0.70
2018-03-07T18:57:44.428Z,1.10
2018-03-07T19:00:12.672Z,0.70
2018-03-07T19:02:42.810Z,1.10
2018-03-07T19:05:13.441Z,0.87
2018-03-07T19:07:44.535Z,1.90
2018-03-07T19:10:14.055Z,1.63
2018-03-07T19:12:42.666Z,0.70
2018-03-07T19:15:13.601Z,1.60
2018-03-07T19:17:43.081Z,1.00
2018-03-07T19:20:14.313Z,1.13
2018-03-07T19:22:49.781Z,0.73
2018-03-07T19:25:19.974Z,1.60
2018-03-07T19:27:52.039Z,1.00
2018-03-07T19:30:19.503Z,1.27
2018-03-07T19:32:52.936Z,1.27
2018-03-07T19:35:21.346Z,2.07
2018-03-07T19:37:53.551Z,2.03
2018-03-07T19:40:21.026Z,1.33
2018-03-07T19:42:53.234Z,1.30
2018-03-07T19:45:22.183Z,1.07
2018-03-07T19:47:51.730Z,1.23
2018-03-07T19:50:22.688Z,1.97
2018-03-07T19:52:50.943Z,1.43
2018-03-07T19:55:20.921Z,1.00
2018-03-07T19:57:51.835Z,3.37
2018-03-07T20:00:21.473Z,1.27
2018-03-07T20:02:49.877Z,1.80
2018-03-07T20:05:21.937Z,1.60
2018-03-07T20:07:56.027Z,1.20
2018-03-07T20:10:26.209Z,1.40
2018-03-07T20:13:00.516Z,1.70
2018-03-07T20:15:33.748Z,1.47
2018-03-07T20:18:05.072Z,2.23
2018-03-07T20:20:36.657Z,1.60
2018-03-07T20:23:04.100Z,1.70
2018-03-07T20:25:31.573Z,1.50
2018-03-07T20:28:01.447Z,1.40
2018-03-07T20:30:30.770Z,1.50
2018-03-07T20:32:58.188Z,1.20
2018-03-07T20:35:31.218Z,2.27
2018-03-07T20:38:03.256Z,1.40
2018-03-07T20:40:32.781Z,1.40
2018-03-07T20:43:02.129Z,1.10
2018-03-07T20:45:31.432Z,1.40
2018-03-07T20:48:01.312Z,1.80
2018-03-07T20:50:34.703Z,1.87
2018-03-07T20:53:06.705Z,1.40
2018-03-07T20:55:34.172Z,1.30
2018-03-07T20:58:04.198Z,1.33
2018-03-07T21:00:34.462Z,1.10
2018-03-07T21:03:04.735Z,1.40
2018-03-07T21:05:32.949Z,1.40
2018-03-07T21:08:00.347Z,1.40
2018-03-07T21:10:29.668Z,1.60
2018-03-07T21:13:00.780Z,1.73
2018-03-07T21:15:30.917Z,2.93
2018-03-07T21:18:00.449Z,1.90
2018-03-07T21:20:30.734Z,1.97
2018-03-07T21:22:58.926Z,2.37
2018-03-07T21:25:30.663Z,1.73
2018-03-07T21:28:02.263Z,1.90
2018-03-07T21:30:33.564Z,1.90
2018-03-07T21:33:02.025Z,1.97
2018-03-07T21:35:32.078Z,1.70
2018-03-07T21:37:59.594Z,2.03
2018-03-07T21:40:29.508Z,2.03
2018-03-07T21:42:57.916Z,1.57
2018-03-07T21:45:27.179Z,2.57
2018-03-07T21:47:54.721Z,2.50
2018-03-07T21:50:22.909Z,1.87
2018-03-07T21:52:55.267Z,4.30
2018-03-07T21:55:23.789Z,2.07
2018-03-07T21:57:52.954Z,2.03
2018-03-07T22:00:20.501Z,2.47
2018-03-07T22:02:49.100Z,1.80
2018-03-07T22:05:22.307Z,2.00
2018-03-07T22:07:54.355Z,1.83
2018-03-07T22:10:22.754Z,1.50
2018-03-07T22:12:50.920Z,1.97
2018-03-07T22:15:22.211Z,1.30
2018-03-07T22:17:49.607Z,1.67
2018-03-07T22:20:17.120Z,1.60
2018-03-07T22:22:50.985Z,1.97
2018-03-07T22:25:21.149Z,1.40
2018-03-07T22:27:51.353Z,1.50
2018-03-07T22:30:20.378Z,1.57
2018-03-07T22:32:48.883Z,1.40
2018-03-07T22:35:17.112Z,1.80
2018-03-07T22:37:48.313Z,1.40
2018-03-07T22:40:17.662Z,2.10
2018-03-07T22:42:45.143Z,1.50
2018-03-07T22:45:13.442Z,1.80
2018-03-07T22:47:40.788Z,2.20
2018-03-07T22:50:08.267Z,1.77
2018-03-07T22:52:35.654Z,2.70
2018-03-07T22:55:03.931Z,1.50
2018-03-07T22:57:32.101Z,2.03
2018-03-07T22:59:59.464Z,1.80
2018-03-07T23:02:26.960Z,1.90
2018-03-07T23:04:54.344Z,1.43
2018-03-07T23:07:22.519Z,1.83
2018-03-07T23:09:50.661Z,1.90
2018-03-07T23:12:18.038Z,1.70
2018-03-07T23:14:45.381Z,1.60
2018-03-07T23:17:12.690Z,1.70
2018-03-07T23:19:40.084Z,1.80
2018-03-07T23:22:07.439Z,2.33
2018-03-07T23:24:35.520Z,1.67
2018-03-07T23:27:02.903Z,2.40
2018-03-07T23:29:31.045Z,1.97
2018-03-07T23:31:59.331Z,2.10
2018-03-07T23:34:27.651Z,2.17
2018-03-07T23:37:02.160Z,2.13
2018-03-07T23:39:30.299Z,3.37
2018-03-07T23:41:57.797Z,2.00
2018-03-07T23:44:25.175Z,1.97
2018-03-07T23:46:53.252Z,2.43
2018-03-07T23:49:21.419Z,2.10
2018-03-07T23:51:48.802Z,4.73
2018-03-07T23:54:17.080Z,1.87
2018-03-07T23:56:45.411Z,1.80
2018-03-07T23:59:12.844Z,2.07
